sensor_id;sensor_type;location;lat;lon;timestamp;P1;durP1;ratioP1;P2;durP2;ratioP2
2998;SDS011;1509;51.964;7.628;2023-06-10T00:01:36;9.77;;;7.17;;
2998;SDS011;1509;51.964;7.628;2023-06-10T00:04:02;9.37;;;6.50;;
2998;SDS011;1509;51.964;7.628;2023-06-10T00:06:29;7.93;;;6.53;;
2998;SDS011;1509;51.964;7.628;2023-06-10T00:09:01;11.27;;;7.53;;
2998;SDS011;1509;51.964;7.628;2023-06-10T00:11:29;11.50;;;7.30;;
2998;SDS011;1509;51.964;7.628;2023-06-10T00:13:55;13.70;;;7.33;;
2998;SDS011;1509;51.964;7.628;2023-06-10T00:16:21;9.13;;;6.83;;
2998;SDS011;1509;51.964;7.628;2023-06-10T00:18:46;9.03;;;7.13;;
2998;SDS011;1509;51.964;7.628;2023-06-10T00:21:13;10.80;;;7.43;;
2998;SDS011;1509;51.964;7.628;2023-06-10T00:23:39;10.23;;;7.00;;
2998;SDS011;1509;51.964;7.628;2023-06-10T00:26:06;10.20;;;6.70;;
2998;SDS011;1509;51.964;7.628;2023-06-10T00:28:32;13.53;;;7.87;;
2998;SDS011;1509;51.964;7.628;2023-06-10T00:30:57;10.63;;;6.30;;
2998;SDS011;1509;51.964;7.628;2023-06-10T00:33:23;11.33;;;7.70;;
2998;SDS011;1509;51.964;7.628;2023-06-10T00:35:49;7.43;;;6.27;;
2998;SDS011;1509;51.964;7.628;2023-06-10T00:38:15;9.50;;;5.70;;
2998;SDS011;1509;51.964;7.628;2023-06-10T00:40:40;7.80;;;6.40;;
2998;SDS011;1509;51.964;7.628;2023-06-10T00:43:07;10.53;;;6.33;;
2998;SDS011;1509;51.964;7.628;2023-06-10T00:45:33;8.73;;;6.90;;
2998;SDS011;1509;51.964;7.628;2023-06-10T00:47:59;8.63;;;6.33;;
2998;SDS011;1509;51.964;7.628;2023-06-10T00:50:25;8.47;;;7.07;;
2998;SDS011;1509;51.964;7.628;2023-06-10T00:52:51;10.90;;;6.87;;
2998;SDS011;1509;51.964;7.628;2023-06-10T00:55:18;8.20;;;6.23;;
2998;SDS011;1509;51.964;7.628;2023-06-10T00:57:45;7.80;;;6.80;;
2998;SDS011;1509;51.964;7.628;2023-06-10T01:00:13;10.70;;;6.30;;
2998;SDS011;1509;51.964;7.628;2023-06-10T01:02:40;11.33;;;6.50;;
2998;SDS011;1509;51.964;7.628;2023-06-10T01:05:06;8.60;;;5.90;;
2998;SDS011;1509;51.964;7.628;2023-06-10T01:07:43;8.67;;;6.30;;
2998;SDS011;1509;51.964;7.628;2023-06-10T01:13:06;9.70;;;7.07;;
2998;SDS011;1509;51.964;7.628;2023-06-10T01:15:36;9.47;;;6.53;;
2998;SDS011;1509;51.964;7.628;2023-06-10T01:18:04;8.87;;;7.20;;
2998;SDS011;1509;51.964;7.628;2023-06-10T01:20:32;8.77;;;6.17;;
2998;SDS011;1509;51.964;7.628;2023-06-10T01:22:59;12.27;;;6.43;;
2998;SDS011;1509;51.964;7.628;2023-06-10T01:25:26;10.47;;;6.77;;
2998;SDS011;1509;51.964;7.628;2023-06-10T01:27:58;11.03;;;6.90;;
2998;SDS011;1509;51.964;7.628;2023-06-10T01:30:37;10.93;;;6.60;;
2998;SDS011;1509;51.964;7.628;2023-06-10T01:33:25;9.40;;;6.63;;
2998;SDS011;1509;51.964;7.628;2023-06-10T01:35:53;11.47;;;6.03;;
2998;SDS011;1509;51.964;7.628;2023-06-10T01:38:21;8.93;;;6.47;;
2998;SDS011;1509;51.964;7.628;2023-06-10T01:40:50;9.20;;;6.47;;
2998;SDS011;1509;51.964;7.628;2023-06-10T01:43:19;9.07;;;6.40;;
2998;SDS011;1509;51.964;7.628;2023-06-10T01:45:45;7.90;;;6.90;;
2998;SDS011;1509;51.964;7.628;2023-06-10T01:48:11;10.10;;;6.90;;
2998;SDS011;1509;51.964;7.628;2023-06-10T01:50:39;10.50;;;6.37;;
2998;SDS011;1509;51.964;7.628;2023-06-10T01:53:05;7.93;;;6.37;;
2998;SDS011;1509;51.964;7.628;2023-06-10T01:55:32;9.87;;;6.03;;
2998;SDS011;1509;51.964;7.628;2023-06-10T01:57:58;8.30;;;5.93;;
2998;SDS011;1509;51.964;7.628;2023-06-10T02:00:24;9.17;;;7.00;;
2998;SDS011;1509;51.964;7.628;2023-06-10T02:02:49;12.87;;;6.37;;
2998;SDS011;1509;51.964;7.628;2023-06-10T02:05:15;8.20;;;6.70;;
2998;SDS011;1509;51.964;7.628;2023-06-10T02:07:41;9.70;;;6.60;;
2998;SDS011;1509;51.964;7.628;2023-06-10T02:10:07;9.27;;;7.20;;
2998;SDS011;1509;51.964;7.628;2023-06-10T02:12:33;12.30;;;8.17;;
2998;SDS011;1509;51.964;7.628;2023-06-10T02:14:58;11.70;;;6.77;;
2998;SDS011;1509;51.964;7.628;2023-06-10T02:17:24;11.53;;;6.80;;
2998;SDS011;1509;51.964;7.628;2023-06-10T02:19:50;10.50;;;7.00;;
2998;SDS011;1509;51.964;7.628;2023-06-10T02:22:21;9.00;;;7.20;;
2998;SDS011;1509;51.964;7.628;2023-06-10T02:24:47;9.83;;;6.40;;
2998;SDS011;1509;51.964;7.628;2023-06-10T02:27:14;9.97;;;6.10;;
2998;SDS011;1509;51.964;7.628;2023-06-10T02:29:40;8.60;;;6.93;;
2998;SDS011;1509;51.964;7.628;2023-06-10T02:32:07;10.87;;;7.33;;
2998;SDS011;1509;51.964;7.628;2023-06-10T02:34:33;10.07;;;7.10;;
2998;SDS011;1509;51.964;7.628;2023-06-10T02:36:58;8.80;;;6.43;;
2998;SDS011;1509;51.964;7.628;2023-06-10T02:39:24;8.50;;;6.30;;
2998;SDS011;1509;51.964;7.628;2023-06-10T02:41:50;10.30;;;6.80;;
2998;SDS011;1509;51.964;7.628;2023-06-10T02:44:17;8.93;;;6.37;;
2998;SDS011;1509;51.964;7.628;2023-06-10T02:46:43;9.80;;;7.40;;
2998;SDS011;1509;51.964;7.628;2023-06-10T02:49:09;7.17;;;5.57;;
2998;SDS011;1509;51.964;7.628;2023-06-10T02:51:35;8.20;;;6.30;;
2998;SDS011;1509;51.964;7.628;2023-06-10T02:54:01;9.43;;;6.27;;
2998;SDS011;1509;51.964;7.628;2023-06-10T02:56:26;10.50;;;7.47;;
2998;SDS011;1509;51.964;7.628;2023-06-10T02:58:52;11.30;;;7.20;;
2998;SDS011;1509;51.964;7.628;2023-06-10T03:01:18;7.17;;;5.97;;
2998;SDS011;1509;51.964;7.628;2023-06-10T03:03:44;7.77;;;6.53;;
2998;SDS011;1509;51.964;7.628;2023-06-10T03:06:11;10.27;;;6.70;;
2998;SDS011;1509;51.964;7.628;2023-06-10T03:08:38;10.70;;;7.53;;
2998;SDS011;1509;51.964;7.628;2023-06-10T03:11:05;8.03;;;6.30;;
2998;SDS011;1509;51.964;7.628;2023-06-10T03:13:30;10.50;;;7.00;;
2998;SDS011;1509;51.964;7.628;2023-06-10T03:15:56;8.93;;;6.50;;
2998;SDS011;1509;51.964;7.628;2023-06-10T03:18:25;9.37;;;7.20;;
2998;SDS011;1509;51.964;7.628;2023-06-10T03:20:51;10.67;;;6.87;;
2998;SDS011;1509;51.964;7.628;2023-06-10T03:23:17;7.10;;;5.77;;
2998;SDS011;1509;51.964;7.628;2023-06-10T03:25:43;8.63;;;6.47;;
2998;SDS011;1509;51.964;7.628;2023-06-10T03:28:09;10.90;;;7.03;;
2998;SDS011;1509;51.964;7.628;2023-06-10T03:30:35;8.10;;;6.40;;
2998;SDS011;1509;51.964;7.628;2023-06-10T03:33:01;12.00;;;6.90;;
2998;SDS011;1509;51.964;7.628;2023-06-10T03:35:26;9.13;;;7.33;;
2998;SDS011;1509;51.964;7.628;2023-06-10T03:37:52;12.10;;;6.40;;
2998;SDS011;1509;51.964;7.628;2023-06-10T03:40:18;13.20;;;6.33;;
2998;SDS011;1509;51.964;7.628;2023-06-10T03:42:43;13.10;;;7.63;;
2998;SDS011;1509;51.964;7.628;2023-06-10T03:45:09;9.47;;;6.93;;
2998;SDS011;1509;51.964;7.628;2023-06-10T03:47:36;10.80;;;6.07;;
2998;SDS011;1509;51.964;7.628;2023-06-10T03:50:05;10.87;;;6.60;;
2998;SDS011;1509;51.964;7.628;2023-06-10T03:52:33;8.40;;;6.70;;
2998;SDS011;1509;51.964;7.628;2023-06-10T03:54:59;8.77;;;6.93;;
2998;SDS011;1509;51.964;7.628;2023-06-10T03:57:24;8.13;;;6.57;;
2998;SDS011;1509;51.964;7.628;2023-06-10T03:59:50;9.53;;;6.57;;
2998;SDS011;1509;51.964;7.628;2023-06-10T04:02:16;8.40;;;6.40;;
2998;SDS011;1509;51.964;7.628;2023-06-10T04:04:42;13.10;;;7.70;;
2998;SDS011;1509;51.964;7.628;2023-06-10T04:07:08;8.77;;;7.07;;
2998;SDS011;1509;51.964;7.628;2023-06-10T04:09:34;11.30;;;6.60;;
2998;SDS011;1509;51.964;7.628;2023-06-10T04:12:01;9.00;;;6.57;;
2998;SDS011;1509;51.964;7.628;2023-06-10T04:14:27;9.40;;;7.07;;
2998;SDS011;1509;51.964;7.628;2023-06-10T04:16:53;9.87;;;7.10;;
2998;SDS011;1509;51.964;7.628;2023-06-10T04:19:19;8.97;;;6.70;;
2998;SDS011;1509;51.964;7.628;2023-06-10T04:21:46;9.10;;;7.33;;
2998;SDS011;1509;51.964;7.628;2023-06-10T04:24:11;8.47;;;6.53;;
2998;SDS011;1509;51.964;7.628;2023-06-10T04:26:37;8.40;;;6.63;;
2998;SDS011;1509;51.964;7.628;2023-06-10T04:29:03;11.20;;;7.20;;
2998;SDS011;1509;51.964;7.628;2023-06-10T04:31:29;8.10;;;6.40;;
2998;SDS011;1509;51.964;7.628;2023-06-10T04:33:54;8.60;;;6.60;;
2998;SDS011;1509;51.964;7.628;2023-06-10T04:36:20;7.63;;;6.03;;
2998;SDS011;1509;51.964;7.628;2023-06-10T04:38:46;12.33;;;7.93;;
2998;SDS011;1509;51.964;7.628;2023-06-10T04:41:11;9.20;;;6.77;;
2998;SDS011;1509;51.964;7.628;2023-06-10T04:43:37;11.13;;;6.73;;
2998;SDS011;1509;51.964;7.628;2023-06-10T04:46:03;12.20;;;6.63;;
2998;SDS011;1509;51.964;7.628;2023-06-10T04:48:29;10.53;;;6.57;;
2998;SDS011;1509;51.964;7.628;2023-06-10T04:50:55;7.80;;;6.00;;
2998;SDS011;1509;51.964;7.628;2023-06-10T04:53:21;8.37;;;5.97;;
2998;SDS011;1509;51.964;7.628;2023-06-10T04:55:47;7.20;;;5.70;;
2998;SDS011;1509;51.964;7.628;2023-06-10T04:58:13;9.13;;;5.87;;
2998;SDS011;1509;51.964;7.628;2023-06-10T05:00:39;9.60;;;5.70;;
2998;SDS011;1509;51.964;7.628;2023-06-10T05:03:05;9.17;;;6.10;;
2998;SDS011;1509;51.964;7.628;2023-06-10T05:05:30;10.40;;;5.40;;
2998;SDS011;1509;51.964;7.628;2023-06-10T05:07:56;14.07;;;7.07;;
2998;SDS011;1509;51.964;7.628;2023-06-10T05:10:22;9.53;;;5.60;;
2998;SDS011;1509;51.964;7.628;2023-06-10T05:12:47;7.77;;;5.53;;
2998;SDS011;1509;51.964;7.628;2023-06-10T05:15:13;12.10;;;6.00;;
2998;SDS011;1509;51.964;7.628;2023-06-10T05:17:39;11.37;;;6.33;;
2998;SDS011;1509;51.964;7.628;2023-06-10T05:20:04;9.53;;;5.70;;
2998;SDS011;1509;51.964;7.628;2023-06-10T05:22:31;8.30;;;5.87;;
2998;SDS011;1509;51.964;7.628;2023-06-10T05:24:57;8.30;;;6.40;;
2998;SDS011;1509;51.964;7.628;2023-06-10T05:27:22;9.33;;;6.50;;
2998;SDS011;1509;51.964;7.628;2023-06-10T05:29:49;9.17;;;5.97;;
2998;SDS011;1509;51.964;7.628;2023-06-10T05:32:16;10.03;;;6.60;;
2998;SDS011;1509;51.964;7.628;2023-06-10T05:34:42;7.27;;;5.10;;
2998;SDS011;1509;51.964;7.628;2023-06-10T05:37:08;7.20;;;5.57;;
2998;SDS011;1509;51.964;7.628;2023-06-10T05:39:35;6.37;;;5.10;;
2998;SDS011;1509;51.964;7.628;2023-06-10T05:42:03;9.07;;;5.37;;
2998;SDS011;1509;51.964;7.628;2023-06-10T05:44:31;11.27;;;6.20;;
2998;SDS011;1509;51.964;7.628;2023-06-10T05:46:57;8.90;;;5.37;;
2998;SDS011;1509;51.964;7.628;2023-06-10T05:49:22;9.03;;;5.40;;
2998;SDS011;1509;51.964;7.628;2023-06-10T05:51:48;8.53;;;5.87;;
2998;SDS011;1509;51.964;7.628;2023-06-10T05:54:14;9.43;;;5.90;;
2998;SDS011;1509;51.964;7.628;2023-06-10T05:56:39;6.27;;;5.30;;
2998;SDS011;1509;51.964;7.628;2023-06-10T05:59:05;9.20;;;5.33;;
2998;SDS011;1509;51.964;7.628;2023-06-10T06:01:31;8.83;;;5.80;;
2998;SDS011;1509;51.964;7.628;2023-06-10T06:03:56;6.87;;;4.97;;
2998;SDS011;1509;51.964;7.628;2023-06-10T06:06:22;8.20;;;5.60;;
2998;SDS011;1509;51.964;7.628;2023-06-10T06:08:48;9.33;;;5.97;;
2998;SDS011;1509;51.964;7.628;2023-06-10T06:11:14;6.80;;;5.37;;
2998;SDS011;1509;51.964;7.628;2023-06-10T06:13:40;9.20;;;5.50;;
2998;SDS011;1509;51.964;7.628;2023-06-10T06:16:07;6.47;;;4.50;;
2998;SDS011;1509;51.964;7.628;2023-06-10T06:18:32;6.50;;;5.20;;
2998;SDS011;1509;51.964;7.628;2023-06-10T06:20:58;6.73;;;5.03;;
2998;SDS011;1509;51.964;7.628;2023-06-10T06:23:24;6.70;;;4.70;;
2998;SDS011;1509;51.964;7.628;2023-06-10T06:25:49;6.80;;;5.17;;
2998;SDS011;1509;51.964;7.628;2023-06-10T06:28:15;6.03;;;4.70;;
2998;SDS011;1509;51.964;7.628;2023-06-10T06:30:41;6.93;;;4.47;;
2998;SDS011;1509;51.964;7.628;2023-06-10T06:33:06;6.60;;;5.20;;
2998;SDS011;1509;51.964;7.628;2023-06-10T06:35:32;6.40;;;4.87;;
2998;SDS011;1509;51.964;7.628;2023-06-10T06:37:59;4.57;;;3.73;;
2998;SDS011;1509;51.964;7.628;2023-06-10T06:40:25;9.07;;;4.57;;
2998;SDS011;1509;51.964;7.628;2023-06-10T06:42:50;9.10;;;4.70;;
2998;SDS011;1509;51.964;7.628;2023-06-10T06:45:16;6.10;;;4.23;;
2998;SDS011;1509;51.964;7.628;2023-06-10T06:47:42;7.90;;;4.90;;
2998;SDS011;1509;51.964;7.628;2023-06-10T06:50:08;5.73;;;4.70;;
2998;SDS011;1509;51.964;7.628;2023-06-10T06:52:34;10.23;;;4.97;;
2998;SDS011;1509;51.964;7.628;2023-06-10T06:55:00;9.47;;;4.93;;
2998;SDS011;1509;51.964;7.628;2023-06-10T06:57:25;7.13;;;4.73;;
2998;SDS011;1509;51.964;7.628;2023-06-10T06:59:51;5.50;;;4.13;;
2998;SDS011;1509;51.964;7.628;2023-06-10T07:02:17;6.93;;;4.90;;
2998;SDS011;1509;51.964;7.628;2023-06-10T07:04:43;9.40;;;4.20;;
2998;SDS011;1509;51.964;7.628;2023-06-10T07:07:10;6.53;;;4.33;;
2998;SDS011;1509;51.964;7.628;2023-06-10T07:09:37;8.10;;;5.17;;
2998;SDS011;1509;51.964;7.628;2023-06-10T07:12:03;7.77;;;4.50;;
2998;SDS011;1509;51.964;7.628;2023-06-10T07:14:28;8.67;;;4.80;;
2998;SDS011;1509;51.964;7.628;2023-06-10T07:16:54;5.90;;;4.13;;
2998;SDS011;1509;51.964;7.628;2023-06-10T07:19:20;7.70;;;4.40;;
2998;SDS011;1509;51.964;7.628;2023-06-10T07:21:45;5.97;;;4.43;;
2998;SDS011;1509;51.964;7.628;2023-06-10T07:24:11;4.57;;;3.73;;
2998;SDS011;1509;51.964;7.628;2023-06-10T07:26:37;6.83;;;3.80;;
2998;SDS011;1509;51.964;7.628;2023-06-10T07:29:02;5.90;;;4.60;;
2998;SDS011;1509;51.964;7.628;2023-06-10T07:31:28;6.50;;;4.23;;
2998;SDS011;1509;51.964;7.628;2023-06-10T07:33:54;7.60;;;4.17;;
2998;SDS011;1509;51.964;7.628;2023-06-10T07:36:19;5.20;;;3.77;;
2998;SDS011;1509;51.964;7.628;2023-06-10T07:38:45;6.10;;;4.20;;
2998;SDS011;1509;51.964;7.628;2023-06-10T07:41:11;6.83;;;4.17;;
2998;SDS011;1509;51.964;7.628;2023-06-10T07:43:37;5.30;;;4.50;;
2998;SDS011;1509;51.964;7.628;2023-06-10T07:46:03;6.50;;;4.57;;
2998;SDS011;1509;51.964;7.628;2023-06-10T07:48:30;7.33;;;4.43;;
2998;SDS011;1509;51.964;7.628;2023-06-10T07:50:56;7.37;;;3.77;;
2998;SDS011;1509;51.964;7.628;2023-06-10T07:53:21;8.00;;;3.90;;
2998;SDS011;1509;51.964;7.628;2023-06-10T07:55:47;6.03;;;4.07;;
2998;SDS011;1509;51.964;7.628;2023-06-10T07:58:13;8.40;;;4.33;;
2998;SDS011;1509;51.964;7.628;2023-06-10T08:00:38;6.43;;;3.57;;
2998;SDS011;1509;51.964;7.628;2023-06-10T08:03:04;6.30;;;4.57;;
2998;SDS011;1509;51.964;7.628;2023-06-10T08:05:30;6.00;;;4.60;;
2998;SDS011;1509;51.964;7.628;2023-06-10T08:07:55;6.33;;;4.20;;
2998;SDS011;1509;51.964;7.628;2023-06-10T08:10:21;4.43;;;3.90;;
2998;SDS011;1509;51.964;7.628;2023-06-10T08:12:47;6.03;;;4.17;;
2998;SDS011;1509;51.964;7.628;2023-06-10T08:15:13;9.90;;;4.90;;
2998;SDS011;1509;51.964;7.628;2023-06-10T08:17:38;9.20;;;4.10;;
2998;SDS011;1509;51.964;7.628;2023-06-10T08:20:05;4.73;;;3.77;;
2998;SDS011;1509;51.964;7.628;2023-06-10T08:22:31;5.30;;;4.20;;
2998;SDS011;1509;51.964;7.628;2023-06-10T08:24:57;5.90;;;4.00;;
2998;SDS011;1509;51.964;7.628;2023-06-10T08:27:22;5.90;;;3.73;;
2998;SDS011;1509;51.964;7.628;2023-06-10T08:29:48;8.50;;;4.50;;
2998;SDS011;1509;51.964;7.628;2023-06-10T08:32:14;6.13;;;4.07;;
2998;SDS011;1509;51.964;7.628;2023-06-10T08:34:39;9.10;;;4.50;;
2998;SDS011;1509;51.964;7.628;2023-06-10T08:37:06;8.70;;;5.23;;
2998;SDS011;1509;51.964;7.628;2023-06-10T08:39:32;5.83;;;4.40;;
2998;SDS011;1509;51.964;7.628;2023-06-10T08:44:42;5.57;;;4.10;;
2998;SDS011;1509;51.964;7.628;2023-06-10T08:47:17;6.30;;;4.50;;
2998;SDS011;1509;51.964;7.628;2023-06-10T08:49:43;5.83;;;4.03;;
2998;SDS011;1509;51.964;7.628;2023-06-10T08:52:19;7.30;;;4.70;;
2998;SDS011;1509;51.964;7.628;2023-06-10T08:54:52;11.40;;;4.23;;
2998;SDS011;1509;51.964;7.628;2023-06-10T08:57:30;8.00;;;4.93;;
2998;SDS011;1509;51.964;7.628;2023-06-10T08:59:56;7.23;;;3.93;;
2998;SDS011;1509;51.964;7.628;2023-06-10T09:02:27;6.17;;;4.60;;
2998;SDS011;1509;51.964;7.628;2023-06-10T09:04:53;5.13;;;4.40;;
2998;SDS011;1509;51.964;7.628;2023-06-10T09:07:20;8.10;;;4.90;;
2998;SDS011;1509;51.964;7.628;2023-06-10T09:09:46;8.63;;;4.50;;
2998;SDS011;1509;51.964;7.628;2023-06-10T09:12:14;7.67;;;4.47;;
2998;SDS011;1509;51.964;7.628;2023-06-10T09:14:40;7.83;;;4.40;;
2998;SDS011;1509;51.964;7.628;2023-06-10T09:17:11;7.43;;;4.33;;
2998;SDS011;1509;51.964;7.628;2023-06-10T09:19:38;7.53;;;4.03;;
2998;SDS011;1509;51.964;7.628;2023-06-10T09:22:05;5.13;;;3.70;;
2998;SDS011;1509;51.964;7.628;2023-06-10T09:24:30;5.70;;;3.90;;
2998;SDS011;1509;51.964;7.628;2023-06-10T09:27:03;7.60;;;4.50;;
2998;SDS011;1509;51.964;7.628;2023-06-10T09:29:31;5.10;;;4.57;;
2998;SDS011;1509;51.964;7.628;2023-06-10T09:32:09;5.70;;;4.23;;
2998;SDS011;1509;51.964;7.628;2023-06-10T09:34:38;7.37;;;4.50;;
2998;SDS011;1509;51.964;7.628;2023-06-10T09:37:04;5.10;;;4.13;;
2998;SDS011;1509;51.964;7.628;2023-06-10T09:39:30;7.37;;;4.30;;
2998;SDS011;1509;51.964;7.628;2023-06-10T09:41:56;4.70;;;3.97;;
2998;SDS011;1509;51.964;7.628;2023-06-10T09:44:21;5.40;;;3.77;;
2998;SDS011;1509;51.964;7.628;2023-06-10T09:46:50;4.93;;;4.43;;
2998;SDS011;1509;51.964;7.628;2023-06-10T09:49:16;5.73;;;4.40;;
2998;SDS011;1509;51.964;7.628;2023-06-10T09:51:52;5.23;;;4.00;;
2998;SDS011;1509;51.964;7.628;2023-06-10T09:54:19;4.97;;;4.07;;
2998;SDS011;1509;51.964;7.628;2023-06-10T09:56:49;4.73;;;3.80;;
2998;SDS011;1509;51.964;7.628;2023-06-10T09:59:24;7.40;;;3.77;;
2998;SDS011;1509;51.964;7.628;2023-06-10T10:01:55;6.87;;;3.80;;
2998;SDS011;1509;51.964;7.628;2023-06-10T10:04:24;5.20;;;3.87;;
2998;SDS011;1509;51.964;7.628;2023-06-10T10:06:50;5.07;;;4.07;;
2998;SDS011;1509;51.964;7.628;2023-06-10T10:09:16;5.80;;;4.00;;
2998;SDS011;1509;51.964;7.628;2023-06-10T10:11:42;5.20;;;4.03;;
2998;SDS011;1509;51.964;7.628;2023-06-10T10:14:09;5.20;;;3.50;;
2998;SDS011;1509;51.964;7.628;2023-06-10T10:16:39;6.10;;;3.70;;
2998;SDS011;1509;51.964;7.628;2023-06-10T10:19:16;5.73;;;4.40;;
2998;SDS011;1509;51.964;7.628;2023-06-10T10:21:50;6.10;;;4.73;;
2998;SDS011;1509;51.964;7.628;2023-06-10T10:24:20;6.40;;;4.50;;
2998;SDS011;1509;51.964;7.628;2023-06-10T10:26:48;4.30;;;3.87;;
2998;SDS011;1509;51.964;7.628;2023-06-10T10:31:50;6.33;;;4.43;;
2998;SDS011;1509;51.964;7.628;2023-06-10T10:34:21;10.00;;;4.60;;
2998;SDS011;1509;51.964;7.628;2023-06-10T10:37:02;7.80;;;4.53;;
2998;SDS011;1509;51.964;7.628;2023-06-10T10:39:28;5.07;;;4.10;;
2998;SDS011;1509;51.964;7.628;2023-06-10T10:41:55;6.07;;;4.30;;
2998;SDS011;1509;51.964;7.628;2023-06-10T10:44:21;5.47;;;4.27;;
2998;SDS011;1509;51.964;7.628;2023-06-10T10:46:53;7.73;;;3.63;;
2998;SDS011;1509;51.964;7.628;2023-06-10T10:49:20;5.13;;;4.47;;
2998;SDS011;1509;51.964;7.628;2023-06-10T10:51:55;5.30;;;4.07;;
2998;SDS011;1509;51.964;7.628;2023-06-10T10:54:36;6.80;;;4.23;;
2998;SDS011;1509;51.964;7.628;2023-06-10T10:57:21;5.73;;;4.03;;
2998;SDS011;1509;51.964;7.628;2023-06-10T11:02:33;5.00;;;4.50;;
2998;SDS011;1509;51.964;7.628;2023-06-10T11:05:01;5.33;;;4.20;;
2998;SDS011;1509;51.964;7.628;2023-06-10T11:07:28;5.30;;;3.90;;
2998;SDS011;1509;51.964;7.628;2023-06-10T11:09:59;7.33;;;4.80;;
2998;SDS011;1509;51.964;7.628;2023-06-10T11:15:11;4.80;;;4.30;;
2998;SDS011;1509;51.964;7.628;2023-06-10T11:20:41;5.73;;;4.43;;
2998;SDS011;1509;51.964;7.628;2023-06-10T11:23:08;4.47;;;4.07;;
2998;SDS011;1509;51.964;7.628;2023-06-10T11:25:38;5.53;;;4.30;;
2998;SDS011;1509;51.964;7.628;2023-06-10T11:28:17;6.27;;;3.83;;
2998;SDS011;1509;51.964;7.628;2023-06-10T11:30:44;6.93;;;4.90;;
2998;SDS011;1509;51.964;7.628;2023-06-10T11:33:14;6.10;;;4.80;;
2998;SDS011;1509;51.964;7.628;2023-06-10T11:35:42;4.47;;;3.70;;
2998;SDS011;1509;51.964;7.628;2023-06-10T11:38:08;5.77;;;4.00;;
2998;SDS011;1509;51.964;7.628;2023-06-10T11:40:36;5.50;;;4.80;;
2998;SDS011;1509;51.964;7.628;2023-06-10T11:43:03;5.47;;;4.97;;
2998;SDS011;1509;51.964;7.628;2023-06-10T11:45:30;7.50;;;5.20;;
2998;SDS011;1509;51.964;7.628;2023-06-10T11:47:57;11.93;;;4.80;;
2998;SDS011;1509;51.964;7.628;2023-06-10T11:50:29;5.47;;;4.97;;
2998;SDS011;1509;51.964;7.628;2023-06-10T11:52:58;4.90;;;4.40;;
2998;SDS011;1509;51.964;7.628;2023-06-10T11:55:25;5.20;;;4.70;;
2998;SDS011;1509;51.964;7.628;2023-06-10T11:58:11;8.10;;;4.47;;
2998;SDS011;1509;51.964;7.628;2023-06-10T12:00:44;5.83;;;4.80;;
2998;SDS011;1509;51.964;7.628;2023-06-10T12:03:22;5.80;;;4.60;;
2998;SDS011;1509;51.964;7.628;2023-06-10T12:05:55;6.47;;;4.60;;
2998;SDS011;1509;51.964;7.628;2023-06-10T12:08:21;6.70;;;4.47;;
2998;SDS011;1509;51.964;7.628;2023-06-10T12:10:46;5.10;;;4.60;;
2998;SDS011;1509;51.964;7.628;2023-06-10T12:13:12;4.87;;;4.40;;
2998;SDS011;1509;51.964;7.628;2023-06-10T12:15:38;4.73;;;4.23;;
2998;SDS011;1509;51.964;7.628;2023-06-10T12:18:04;6.03;;;4.27;;
2998;SDS011;1509;51.964;7.628;2023-06-10T12:20:30;5.60;;;5.07;;
2998;SDS011;1509;51.964;7.628;2023-06-10T12:22:59;4.80;;;4.20;;
2998;SDS011;1509;51.964;7.628;2023-06-10T12:25:27;6.87;;;4.67;;
2998;SDS011;1509;51.964;7.628;2023-06-10T12:27:56;4.97;;;4.57;;
2998;SDS011;1509;51.964;7.628;2023-06-10T12:30:24;5.27;;;4.77;;
2998;SDS011;1509;51.964;7.628;2023-06-10T12:32:51;5.60;;;4.97;;
2998;SDS011;1509;51.964;7.628;2023-06-10T12:35:19;5.03;;;4.53;;
2998;SDS011;1509;51.964;7.628;2023-06-10T12:37:56;7.70;;;4.90;;
2998;SDS011;1509;51.964;7.628;2023-06-10T12:40:29;6.30;;;5.23;;
2998;SDS011;1509;51.964;7.628;2023-06-10T12:42:56;5.53;;;4.93;;
2998;SDS011;1509;51.964;7.628;2023-06-10T12:45:35;6.20;;;4.33;;
2998;SDS011;1509;51.964;7.628;2023-06-10T12:48:20;4.80;;;4.33;;
2998;SDS011;1509;51.964;7.628;2023-06-10T12:50:51;5.17;;;4.67;;
2998;SDS011;1509;51.964;7.628;2023-06-10T12:53:20;5.90;;;5.30;;
2998;SDS011;1509;51.964;7.628;2023-06-10T12:55:47;5.87;;;5.20;;
2998;SDS011;1509;51.964;7.628;2023-06-10T12:58:13;5.10;;;4.57;;
2998;SDS011;1509;51.964;7.628;2023-06-10T13:00:39;6.47;;;5.10;;
2998;SDS011;1509;51.964;7.628;2023-06-10T13:03:07;6.03;;;5.10;;
2998;SDS011;1509;51.964;7.628;2023-06-10T13:05:35;5.13;;;4.53;;
2998;SDS011;1509;51.964;7.628;2023-06-10T13:08:03;5.40;;;4.90;;
2998;SDS011;1509;51.964;7.628;2023-06-10T13:10:35;5.90;;;5.30;;
2998;SDS011;1509;51.964;7.628;2023-06-10T13:13:01;6.87;;;5.60;;
2998;SDS011;1509;51.964;7.628;2023-06-10T13:15:30;5.97;;;5.47;;
2998;SDS011;1509;51.964;7.628;2023-06-10T13:17:55;7.57;;;5.30;;
2998;SDS011;1509;51.964;7.628;2023-06-10T13:20:21;5.33;;;4.83;;
2998;SDS011;1509;51.964;7.628;2023-06-10T13:22:47;5.50;;;4.87;;
2998;SDS011;1509;51.964;7.628;2023-06-10T13:25:14;10.93;;;5.93;;
2998;SDS011;1509;51.964;7.628;2023-06-10T13:27:40;6.33;;;5.30;;
2998;SDS011;1509;51.964;7.628;2023-06-10T13:30:07;8.20;;;5.40;;
2998;SDS011;1509;51.964;7.628;2023-06-10T13:32:34;5.47;;;5.00;;
2998;SDS011;1509;51.964;7.628;2023-06-10T13:35:01;6.80;;;6.00;;
2998;SDS011;1509;51.964;7.628;2023-06-10T13:37:26;6.63;;;6.03;;
2998;SDS011;1509;51.964;7.628;2023-06-10T13:39:52;6.20;;;5.63;;
2998;SDS011;1509;51.964;7.628;2023-06-10T13:42:18;6.70;;;6.00;;
2998;SDS011;1509;51.964;7.628;2023-06-10T13:44:45;12.63;;;6.70;;
2998;SDS011;1509;51.964;7.628;2023-06-10T13:47:12;7.53;;;5.90;;
2998;SDS011;1509;51.964;7.628;2023-06-10T13:49:38;9.33;;;6.20;;
2998;SDS011;1509;51.964;7.628;2023-06-10T13:52:05;8.83;;;6.07;;
2998;SDS011;1509;51.964;7.628;2023-06-10T13:54:31;7.20;;;6.50;;
2998;SDS011;1509;51.964;7.628;2023-06-10T13:56:57;6.97;;;6.23;;
2998;SDS011;1509;51.964;7.628;2023-06-10T13:59:22;10.30;;;6.80;;
2998;SDS011;1509;51.964;7.628;2023-06-10T14:01:48;5.50;;;4.90;;
2998;SDS011;1509;51.964;7.628;2023-06-10T14:04:14;11.23;;;8.20;;
2998;SDS011;1509;51.964;7.628;2023-06-10T14:06:40;7.53;;;6.27;;
2998;SDS011;1509;51.964;7.628;2023-06-10T14:09:06;6.37;;;5.70;;
2998;SDS011;1509;51.964;7.628;2023-06-10T14:11:31;6.60;;;6.00;;
2998;SDS011;1509;51.964;7.628;2023-06-10T14:13:57;7.17;;;6.47;;
2998;SDS011;1509;51.964;7.628;2023-06-10T14:16:26;7.87;;;5.80;;
2998;SDS011;1509;51.964;7.628;2023-06-10T14:18:52;8.10;;;6.17;;
2998;SDS011;1509;51.964;7.628;2023-06-10T14:21:18;9.30;;;6.17;;
2998;SDS011;1509;51.964;7.628;2023-06-10T14:23:44;7.67;;;6.37;;
2998;SDS011;1509;51.964;7.628;2023-06-10T14:26:10;7.77;;;6.60;;
2998;SDS011;1509;51.964;7.628;2023-06-10T14:28:37;8.10;;;6.27;;
2998;SDS011;1509;51.964;7.628;2023-06-10T14:31:02;10.67;;;6.33;;
2998;SDS011;1509;51.964;7.628;2023-06-10T14:33:28;5.90;;;5.30;;
2998;SDS011;1509;51.964;7.628;2023-06-10T14:35:56;7.00;;;6.30;;
2998;SDS011;1509;51.964;7.628;2023-06-10T14:38:21;7.90;;;6.10;;
2998;SDS011;1509;51.964;7.628;2023-06-10T14:40:47;7.10;;;6.40;;
2998;SDS011;1509;51.964;7.628;2023-06-10T14:43:13;6.20;;;5.60;;
2998;SDS011;1509;51.964;7.628;2023-06-10T14:45:39;10.20;;;6.30;;
2998;SDS011;1509;51.964;7.628;2023-06-10T14:48:05;6.07;;;5.47;;
2998;SDS011;1509;51.964;7.628;2023-06-10T14:50:32;6.60;;;6.00;;
2998;SDS011;1509;51.964;7.628;2023-06-10T14:52:59;7.40;;;5.50;;
2998;SDS011;1509;51.964;7.628;2023-06-10T14:55:26;6.70;;;5.63;;
2998;SDS011;1509;51.964;7.628;2023-06-10T14:57:51;6.93;;;6.23;;
2998;SDS011;1509;51.964;7.628;2023-06-10T15:00:17;10.77;;;7.43;;
2998;SDS011;1509;51.964;7.628;2023-06-10T15:02:47;6.90;;;6.10;;
2998;SDS011;1509;51.964;7.628;2023-06-10T15:05:13;9.40;;;6.30;;
2998;SDS011;1509;51.964;7.628;2023-06-10T15:07:44;8.00;;;6.93;;
2998;SDS011;1509;51.964;7.628;2023-06-10T15:10:10;7.73;;;7.03;;
2998;SDS011;1509;51.964;7.628;2023-06-10T15:12:36;9.03;;;6.23;;
2998;SDS011;1509;51.964;7.628;2023-06-10T15:15:02;6.63;;;5.43;;
2998;SDS011;1509;51.964;7.628;2023-06-10T15:17:29;5.97;;;5.30;;
2998;SDS011;1509;51.964;7.628;2023-06-10T15:19:55;6.60;;;5.93;;
2998;SDS011;1509;51.964;7.628;2023-06-10T15:22:21;8.50;;;6.33;;
2998;SDS011;1509;51.964;7.628;2023-06-10T15:24:47;8.90;;;7.50;;
2998;SDS011;1509;51.964;7.628;2023-06-10T15:27:13;7.50;;;5.90;;
2998;SDS011;1509;51.964;7.628;2023-06-10T15:29:39;7.60;;;6.30;;